createdAt,value
2018-12-18T00:00:49.638Z,9.47
2018-12-18T00:03:17.873Z,7.73
2018-12-18T00:05:45.990Z,8.77
2018-12-18T00:08:14.179Z,9.40
2018-12-18T00:10:51.879Z,8.47
2018-12-18T00:13:20.090Z,10.63
2018-12-18T00:15:48.393Z,9.03
2018-12-18T00:18:16.548Z,8.33
2018-12-18T00:20:44.722Z,8.70
2018-12-18T00:23:12.869Z,10.27
2018-12-18T00:25:41.001Z,9.70
2018-12-18T00:28:09.285Z,8.07
2018-12-18T00:30:38.134Z,9.33
2018-12-18T00:33:06.134Z,8.00
2018-12-18T00:35:34.251Z,8.07
2018-12-18T00:38:02.482Z,9.07
2018-12-18T00:40:30.641Z,8.80
2018-12-18T00:42:58.799Z,8.30
2018-12-18T00:45:33.890Z,9.40
2018-12-18T00:48:02.239Z,7.93
2018-12-18T00:50:30.363Z,8.13
2018-12-18T00:52:58.501Z,8.33
2018-12-18T00:55:26.607Z,9.80
2018-12-18T00:57:54.951Z,10.47
2018-12-18T01:00:23.389Z,9.90
2018-12-18T01:02:54.764Z,9.10
2018-12-18T01:05:23.158Z,11.17
2018-12-18T01:07:53.474Z,8.47
2018-12-18T01:10:21.642Z,9.60
2018-12-18T01:12:49.847Z,11.67
2018-12-18T01:15:18.164Z,10.77
2018-12-18T01:17:46.323Z,9.03
2018-12-18T01:20:14.804Z,8.77
2018-12-18T01:22:42.918Z,9.53
2018-12-18T01:25:11.089Z,10.47
2018-12-18T01:27:39.258Z,9.70
2018-12-18T01:30:07.636Z,11.20
2018-12-18T01:32:35.720Z,11.53
2018-12-18T01:35:04.843Z,10.67
2018-12-18T01:37:32.999Z,9.40
2018-12-18T01:40:01.287Z,10.27
2018-12-18T01:42:29.429Z,9.97
2018-12-18T01:44:57.525Z,11.00
2018-12-18T01:47:25.726Z,11.33
2018-12-18T01:49:54.128Z,10.43
2018-12-18T01:52:22.299Z,12.07
2018-12-18T01:54:50.447Z,11.57
2018-12-18T01:57:18.597Z,11.37
2018-12-18T01:59:47.165Z,12.17
2018-12-18T02:02:16.261Z,12.73
2018-12-18T02:04:44.600Z,12.37
2018-12-18T02:07:12.810Z,12.93
2018-12-18T02:09:41.109Z,14.10
2018-12-18T02:12:09.403Z,11.87
2018-12-18T02:14:37.651Z,13.17
2018-12-18T02:17:06.155Z,12.10
2018-12-18T02:19:34.304Z,11.87
2018-12-18T02:22:02.466Z,14.07
2018-12-18T02:24:30.830Z,13.00
2018-12-18T02:26:58.945Z,17.37
2018-12-18T02:29:27.368Z,13.57
2018-12-18T02:31:55.469Z,14.90
2018-12-18T02:34:23.864Z,14.43
2018-12-18T02:36:52.055Z,14.70
2018-12-18T02:39:20.419Z,14.27
2018-12-18T02:41:48.816Z,12.83
2018-12-18T02:44:16.986Z,13.53
2018-12-18T02:46:45.330Z,12.50
2018-12-18T02:49:14.118Z,13.67
2018-12-18T02:51:42.470Z,13.40
2018-12-18T02:54:10.780Z,14.33
2018-12-18T02:56:39.132Z,13.63
2018-12-18T02:59:07.370Z,14.57
2018-12-18T03:01:35.582Z,14.70
2018-12-18T03:04:03.898Z,14.07
2018-12-18T03:06:32.108Z,12.90
2018-12-18T03:09:00.294Z,15.83
2018-12-18T03:11:28.661Z,16.17
2018-12-18T03:13:56.780Z,14.70
2018-12-18T03:16:25.155Z,14.47
2018-12-18T03:18:53.300Z,16.77
2018-12-18T03:21:21.448Z,16.20
2018-12-18T03:23:49.683Z,15.00
2018-12-18T03:26:18.068Z,13.37
2018-12-18T03:28:48.161Z,15.93
2018-12-18T03:31:16.878Z,13.07
2018-12-18T03:33:45.088Z,12.90
2018-12-18T03:36:19.989Z,14.50
2018-12-18T03:38:48.250Z,13.57
2018-12-18T03:41:16.730Z,14.57
2018-12-18T03:43:45.006Z,15.13
2018-12-18T03:46:13.310Z,14.93
2018-12-18T03:48:41.441Z,13.03
2018-12-18T03:51:10.524Z,14.83
2018-12-18T03:53:38.649Z,14.63
2018-12-18T03:56:06.873Z,15.43
2018-12-18T03:58:35.053Z,14.80
2018-12-18T04:01:03.409Z,12.83
2018-12-18T04:03:31.520Z,14.23
2018-12-18T04:05:59.961Z,13.73
2018-12-18T04:08:29.873Z,12.40
2018-12-18T04:10:58.279Z,15.10
2018-12-18T04:13:26.607Z,12.80
2018-12-18T04:15:54.909Z,12.90
2018-12-18T04:18:23.187Z,15.40
2018-12-18T04:20:51.307Z,14.23
2018-12-18T04:23:19.377Z,12.40
2018-12-18T04:25:47.858Z,13.63
2018-12-18T04:28:16.306Z,16.20
2018-12-18T04:30:44.616Z,15.03
2018-12-18T04:33:12.708Z,15.03
2018-12-18T04:35:41.016Z,14.40
2018-12-18T04:38:09.177Z,15.27
2018-12-18T04:40:37.390Z,13.80
2018-12-18T04:43:05.695Z,13.13
2018-12-18T04:45:33.800Z,14.60
2018-12-18T04:48:02.154Z,14.13
2018-12-18T04:50:30.365Z,13.67
2018-12-18T04:52:58.462Z,12.57
2018-12-18T04:55:26.614Z,12.47
2018-12-18T04:57:54.755Z,15.60
2018-12-18T05:00:22.895Z,13.47
2018-12-18T05:02:57.881Z,14.87
2018-12-18T05:05:26.035Z,13.23
2018-12-18T05:07:54.158Z,12.77
2018-12-18T05:10:22.301Z,12.47
2018-12-18T05:12:50.612Z,11.20
2018-12-18T05:15:18.681Z,11.57
2018-12-18T05:17:46.990Z,16.57
2018-12-18T05:20:15.174Z,13.87
2018-12-18T05:22:43.307Z,13.87
2018-12-18T05:25:12.130Z,12.43
2018-12-18T05:27:40.468Z,13.20
2018-12-18T05:30:08.930Z,10.60
2018-12-18T05:32:37.146Z,13.30
2018-12-18T05:35:05.424Z,13.23
2018-12-18T05:37:33.533Z,13.37
2018-12-18T05:40:01.687Z,14.57
2018-12-18T05:42:30.013Z,12.77
2018-12-18T05:44:58.142Z,13.63
2018-12-18T05:47:26.826Z,14.40
2018-12-18T05:49:55.000Z,12.90
2018-12-18T05:52:23.143Z,11.93
2018-12-18T05:54:51.480Z,13.50
2018-12-18T05:57:19.695Z,12.67
2018-12-18T05:59:48.008Z,12.67
2018-12-18T06:02:16.391Z,11.53
2018-12-18T06:04:44.816Z,12.70
2018-12-18T06:07:13.513Z,12.03
2018-12-18T06:09:41.629Z,12.20
2018-12-18T06:12:09.904Z,13.97
2018-12-18T06:14:38.007Z,13.10
2018-12-18T06:17:06.140Z,15.90
2018-12-18T06:19:34.187Z,16.63
2018-12-18T06:22:02.456Z,13.23
2018-12-18T06:24:30.582Z,12.17
2018-12-18T06:26:58.769Z,13.33
2018-12-18T06:29:27.233Z,15.47
2018-12-18T06:34:41.032Z,16.17
2018-12-18T06:37:09.163Z,12.33
2018-12-18T06:39:38.379Z,11.87
2018-12-18T06:42:06.533Z,12.27
2018-12-18T06:44:34.722Z,13.83
2018-12-18T06:47:02.923Z,11.53
2018-12-18T06:49:31.432Z,16.00
2018-12-18T06:51:59.538Z,12.47
2018-12-18T06:54:28.692Z,15.47
2018-12-18T06:56:56.872Z,13.90
2018-12-18T06:59:25.199Z,16.97
2018-12-18T07:01:53.296Z,12.07
2018-12-18T07:04:22.632Z,13.27
2018-12-18T07:06:51.004Z,16.27
2018-12-18T07:09:19.438Z,13.13
2018-12-18T07:11:47.637Z,10.83
2018-12-18T07:14:15.786Z,13.10
2018-12-18T07:16:43.968Z,12.20
2018-12-18T07:19:12.071Z,12.60
2018-12-18T07:21:41.419Z,10.97
2018-12-18T07:24:14.077Z,10.10
2018-12-18T07:26:39.758Z,13.37
2018-12-18T07:29:08.070Z,12.00
2018-12-18T07:31:36.199Z,12.03
2018-12-18T07:34:04.446Z,10.63
2018-12-18T07:36:32.605Z,14.20
2018-12-18T07:39:00.690Z,12.73
2018-12-18T07:41:28.893Z,9.80
2018-12-18T07:43:57.037Z,13.53
2018-12-18T07:46:25.219Z,11.70
2018-12-18T07:48:53.840Z,10.77
2018-12-18T07:51:22.084Z,11.33
2018-12-18T07:53:50.207Z,12.37
2018-12-18T07:56:18.309Z,14.60
2018-12-18T07:58:46.534Z,11.87
2018-12-18T08:01:14.735Z,16.97
2018-12-18T08:03:42.872Z,12.10
2018-12-18T08:06:11.025Z,13.23
2018-12-18T08:08:39.143Z,11.87
2018-12-18T08:11:07.851Z,10.80
2018-12-18T08:13:35.981Z,13.13
2018-12-18T08:16:04.384Z,13.27
2018-12-18T08:18:32.562Z,11.60
2018-12-18T08:21:00.826Z,12.27
2018-12-18T08:23:29.017Z,15.23
2018-12-18T08:25:57.277Z,12.60
2018-12-18T08:28:25.407Z,11.73
2018-12-18T08:30:53.714Z,12.90
2018-12-18T08:33:21.822Z,14.17
2018-12-18T08:35:50.191Z,12.37
2018-12-18T08:38:18.336Z,12.77
2018-12-18T08:40:46.459Z,16.67
2018-12-18T08:43:14.666Z,12.83
2018-12-18T08:45:42.985Z,12.03
2018-12-18T08:48:11.118Z,11.80
2018-12-18T08:50:40.134Z,14.20
2018-12-18T08:53:08.360Z,12.73
2018-12-18T08:55:36.779Z,16.07
2018-12-18T08:58:04.943Z,15.23
2018-12-18T09:00:33.402Z,11.73
2018-12-18T09:03:01.534Z,14.07
2018-12-18T09:05:29.957Z,15.77
2018-12-18T09:07:58.038Z,11.63
2018-12-18T09:10:26.246Z,12.67
2018-12-18T09:12:55.169Z,11.27
2018-12-18T09:15:28.930Z,11.27
2018-12-18T09:17:57.144Z,12.87
2018-12-18T09:20:25.440Z,12.57
2018-12-18T09:22:53.582Z,10.87
2018-12-18T09:25:22.184Z,12.30
2018-12-18T09:27:50.422Z,11.10
2018-12-18T09:30:18.576Z,13.27
2018-12-18T09:32:46.898Z,10.77
2018-12-18T09:35:15.054Z,10.23
2018-12-18T09:37:43.248Z,10.97
2018-12-18T09:40:11.479Z,9.33
2018-12-18T09:42:45.528Z,9.77
2018-12-18T09:45:13.890Z,11.40
2018-12-18T09:47:42.038Z,10.63
2018-12-18T09:50:10.641Z,9.80
2018-12-18T09:52:38.720Z,10.30
2018-12-18T09:55:08.072Z,10.43
2018-12-18T09:57:42.440Z,8.87
2018-12-18T10:00:11.118Z,9.43
2018-12-18T10:02:39.304Z,12.73
2018-12-18T10:05:07.454Z,9.97
2018-12-18T10:07:35.548Z,9.67
2018-12-18T10:10:04.519Z,10.37
2018-12-18T10:12:38.287Z,11.63
2018-12-18T10:15:07.002Z,11.30
2018-12-18T10:17:36.221Z,10.47
2018-12-18T10:20:05.504Z,11.27
2018-12-18T10:22:33.657Z,11.13
2018-12-18T10:25:01.795Z,10.20
2018-12-18T10:27:30.164Z,10.37
2018-12-18T10:29:58.568Z,8.40
2018-12-18T10:32:26.934Z,11.43
2018-12-18T10:34:55.085Z,10.10
2018-12-18T10:37:24.042Z,9.40
2018-12-18T10:39:52.572Z,9.07
2018-12-18T10:42:20.945Z,10.60
2018-12-18T10:44:49.059Z,8.33
2018-12-18T10:47:17.273Z,8.20
2018-12-18T10:49:45.477Z,8.47
2018-12-18T10:52:14.433Z,10.50
2018-12-18T10:54:42.787Z,9.67
2018-12-18T10:57:11.157Z,12.37
2018-12-18T10:59:39.574Z,10.67
2018-12-18T11:02:08.557Z,9.30
2018-12-18T11:04:36.812Z,8.23
2018-12-18T11:07:05.841Z,8.93
2018-12-18T11:09:34.075Z,9.17
2018-12-18T11:12:02.255Z,8.20
2018-12-18T11:14:30.596Z,9.33
2018-12-18T11:16:58.944Z,9.07
2018-12-18T11:19:27.154Z,9.03
2018-12-18T11:21:55.563Z,8.43
2018-12-18T11:24:23.776Z,7.97
2018-12-18T11:26:52.723Z,6.53
2018-12-18T11:29:21.387Z,5.93
2018-12-18T11:31:50.022Z,6.30
2018-12-18T11:34:18.281Z,7.73
2018-12-18T11:36:46.699Z,11.23
2018-12-18T11:39:15.036Z,7.00
2018-12-18T11:41:43.396Z,9.50
2018-12-18T11:44:11.715Z,11.77
2018-12-18T11:46:40.090Z,7.67
2018-12-18T11:49:08.289Z,11.73
2018-12-18T11:51:36.653Z,7.90
2018-12-18T11:54:04.815Z,8.07
2018-12-18T11:56:33.014Z,7.17
2018-12-18T11:59:01.310Z,9.37
2018-12-18T12:01:29.476Z,6.77
2018-12-18T12:03:57.815Z,8.40
2018-12-18T12:06:25.903Z,6.27
2018-12-18T12:08:54.116Z,6.47
2018-12-18T12:11:22.357Z,7.37
2018-12-18T12:13:50.630Z,5.80
2018-12-18T12:16:18.814Z,5.97
2018-12-18T12:18:47.137Z,7.10
2018-12-18T12:21:15.296Z,6.33
2018-12-18T12:23:43.532Z,7.67
2018-12-18T12:26:17.314Z,8.30
2018-12-18T12:28:45.669Z,6.20
2018-12-18T12:31:13.788Z,6.70
2018-12-18T12:33:41.981Z,5.83
2018-12-18T12:36:10.337Z,7.13
2018-12-18T12:38:38.442Z,5.87
2018-12-18T12:41:06.552Z,12.27
2018-12-18T12:43:34.891Z,7.70
2018-12-18T12:46:03.167Z,8.43
2018-12-18T12:48:36.950Z,7.33
2018-12-18T12:51:05.232Z,6.10
2018-12-18T12:53:33.439Z,5.80
2018-12-18T12:56:01.970Z,5.87
2018-12-18T12:58:30.304Z,7.77
2018-12-18T13:00:58.404Z,7.47
2018-12-18T13:03:26.679Z,7.23
2018-12-18T13:05:54.960Z,5.63
2018-12-18T13:08:23.168Z,9.10
2018-12-18T13:10:51.460Z,8.27
2018-12-18T13:13:19.560Z,5.60
2018-12-18T13:15:47.864Z,9.27
2018-12-18T13:18:16.176Z,6.13
2018-12-18T13:20:44.490Z,5.30
2018-12-18T13:23:12.624Z,4.43
2018-12-18T13:25:41.065Z,3.50
2018-12-18T13:28:09.555Z,4.50
2018-12-18T13:30:38.144Z,4.20
2018-12-18T13:33:06.313Z,4.47
2018-12-18T13:35:34.552Z,5.07
2018-12-18T13:38:02.953Z,5.53
2018-12-18T13:40:32.285Z,4.17
2018-12-18T13:43:00.972Z,6.80
2018-12-18T13:45:29.114Z,5.73
2018-12-18T13:47:57.305Z,4.37
2018-12-18T13:50:25.410Z,7.83
2018-12-18T13:52:53.578Z,5.30
2018-12-18T13:55:21.887Z,6.93
2018-12-18T13:57:50.096Z,4.93
2018-12-18T14:00:18.306Z,7.23
2018-12-18T14:02:46.428Z,5.17
2018-12-18T14:05:14.558Z,6.13
2018-12-18T14:07:42.680Z,8.73
2018-12-18T14:10:10.985Z,6.67
2018-12-18T14:12:39.131Z,8.43
2018-12-18T14:15:08.020Z,5.77
2018-12-18T14:17:36.114Z,24.93
2018-12-18T14:20:05.191Z,8.60
2018-12-18T14:22:33.282Z,10.50
2018-12-18T14:25:01.477Z,7.97
2018-12-18T14:27:29.608Z,12.07
2018-12-18T14:29:57.737Z,13.40
2018-12-18T14:32:25.855Z,15.60
2018-12-18T14:34:54.089Z,12.57
2018-12-18T14:37:22.298Z,7.53
2018-12-18T14:39:50.516Z,12.03
2018-12-18T14:42:18.683Z,7.70
2018-12-18T14:44:49.681Z,8.87
2018-12-18T14:47:18.525Z,9.33
2018-12-18T14:49:46.639Z,7.20
2018-12-18T14:52:15.448Z,9.67
2018-12-18T14:54:43.590Z,8.10
2018-12-18T14:57:11.744Z,8.93
2018-12-18T14:59:40.048Z,6.67
2018-12-18T15:02:08.202Z,8.27
2018-12-18T15:04:36.364Z,8.00
2018-12-18T15:07:04.493Z,7.67
2018-12-18T15:09:32.612Z,6.47
2018-12-18T15:12:00.892Z,7.17
2018-12-18T15:14:29.023Z,8.83
2018-12-18T15:16:57.165Z,9.00
2018-12-18T15:19:25.307Z,8.30
2018-12-18T15:21:53.405Z,8.83
2018-12-18T15:24:21.673Z,7.67
2018-12-18T15:26:49.807Z,9.63
2018-12-18T15:29:18.077Z,13.77
2018-12-18T15:31:46.175Z,10.37
2018-12-18T15:34:14.346Z,10.60
2018-12-18T15:36:42.517Z,11.07
2018-12-18T15:39:10.769Z,13.07
2018-12-18T15:41:38.967Z,11.03
2018-12-18T15:44:07.153Z,11.37
2018-12-18T15:46:35.384Z,10.53
2018-12-18T15:49:03.711Z,13.23
2018-12-18T15:51:31.851Z,10.17
2018-12-18T15:53:59.997Z,11.67
2018-12-18T15:56:28.109Z,11.17
2018-12-18T15:58:56.487Z,14.60
2018-12-18T16:01:24.650Z,9.23
2018-12-18T16:03:52.747Z,10.87
2018-12-18T16:06:22.352Z,9.17
2018-12-18T16:08:50.520Z,10.13
2018-12-18T16:11:18.654Z,11.80
2018-12-18T16:13:46.819Z,9.30
2018-12-18T16:16:15.125Z,9.10
2018-12-18T16:18:43.268Z,10.37
2018-12-18T16:21:11.432Z,12.83
2018-12-18T16:23:39.649Z,12.17
2018-12-18T16:26:07.816Z,10.03
2018-12-18T16:28:35.978Z,11.57
2018-12-18T16:31:04.316Z,10.57
2018-12-18T16:33:32.442Z,14.50
2018-12-18T16:36:00.612Z,10.43
2018-12-18T16:38:28.769Z,10.97
2018-12-18T16:40:57.022Z,9.30
2018-12-18T16:43:25.252Z,11.87
2018-12-18T16:45:53.437Z,10.40
2018-12-18T16:48:21.939Z,13.03
2018-12-18T16:50:50.362Z,9.37
2018-12-18T16:53:18.582Z,9.53
2018-12-18T16:55:46.967Z,9.13
2018-12-18T16:58:15.141Z,9.43
2018-12-18T17:00:44.207Z,11.10
2018-12-18T17:03:12.493Z,10.57
2018-12-18T17:05:40.764Z,15.33
2018-12-18T17:08:08.966Z,9.60
2018-12-18T17:10:37.565Z,8.73
2018-12-18T17:13:05.818Z,8.67
2018-12-18T17:15:33.996Z,13.60
2018-12-18T17:18:02.370Z,11.70
2018-12-18T17:20:30.537Z,15.37
2018-12-18T17:22:58.825Z,11.40
2018-12-18T17:25:27.015Z,9.53
2018-12-18T17:27:55.246Z,10.43
2018-12-18T17:30:23.531Z,10.53
2018-12-18T17:32:51.692Z,8.80
2018-12-18T17:35:19.898Z,9.73
2018-12-18T17:37:48.146Z,11.40
2018-12-18T17:40:17.060Z,10.70
2018-12-18T17:42:45.231Z,9.30
2018-12-18T17:45:13.459Z,8.83
2018-12-18T17:47:41.777Z,9.33
2018-12-18T17:50:09.931Z,11.20
2018-12-18T17:52:38.925Z,11.20
2018-12-18T17:55:07.683Z,11.30
2018-12-18T17:57:36.058Z,12.47
2018-12-18T18:00:04.705Z,9.50
2018-12-18T18:02:32.925Z,10.43
2018-12-18T18:05:01.110Z,11.93
2018-12-18T18:07:29.430Z,10.43
2018-12-18T18:09:57.786Z,11.93
2018-12-18T18:12:29.885Z,9.47
2018-12-18T18:14:56.402Z,10.13
2018-12-18T18:17:24.966Z,12.37
2018-12-18T18:19:53.455Z,10.87
2018-12-18T18:22:21.654Z,10.83
2018-12-18T18:24:49.827Z,10.33
2018-12-18T18:27:17.966Z,9.70
2018-12-18T18:29:46.328Z,10.63
2018-12-18T18:32:14.397Z,9.63
2018-12-18T18:34:42.796Z,10.97
2018-12-18T18:37:10.944Z,10.00
2018-12-18T18:39:39.221Z,10.37
2018-12-18T18:42:07.378Z,10.10
2018-12-18T18:44:35.707Z,11.07
2018-12-18T18:47:03.879Z,9.63
2018-12-18T18:49:32.207Z,12.73
2018-12-18T18:52:00.328Z,11.13
2018-12-18T18:54:28.710Z,11.23
2018-12-18T18:56:56.822Z,11.13
2018-12-18T18:59:25.158Z,12.00
2018-12-18T19:01:53.365Z,10.80
2018-12-18T19:04:22.014Z,11.10
2018-12-18T19:06:50.385Z,12.83
2018-12-18T19:09:18.581Z,9.30
2018-12-18T19:11:46.755Z,9.90
2018-12-18T19:14:15.012Z,10.23
2018-12-18T19:16:43.201Z,10.80
2018-12-18T19:19:11.513Z,11.37
2018-12-18T19:21:39.655Z,12.37
2018-12-18T19:24:07.828Z,10.60
2018-12-18T19:26:35.974Z,12.33
2018-12-18T19:29:04.352Z,11.80
2018-12-18T19:31:32.636Z,12.00
2018-12-18T19:34:00.833Z,13.27
2018-12-18T19:36:28.970Z,13.13
2018-12-18T19:38:57.882Z,15.00
2018-12-18T19:41:26.222Z,14.07
2018-12-18T19:43:54.334Z,12.27
2018-12-18T19:46:22.672Z,14.07
2018-12-18T19:48:52.080Z,13.90
2018-12-18T19:51:20.475Z,13.10
2018-12-18T19:53:48.641Z,12.23
2018-12-18T19:56:17.033Z,12.57
2018-12-18T19:58:45.740Z,12.23
2018-12-18T20:01:14.318Z,13.40
2018-12-18T20:03:42.471Z,12.60
2018-12-18T20:06:10.836Z,12.77
2018-12-18T20:08:39.039Z,13.00
2018-12-18T20:11:07.368Z,12.83
2018-12-18T20:13:35.548Z,11.87
2018-12-18T20:16:03.797Z,14.70
2018-12-18T20:18:32.158Z,15.67
2018-12-18T20:21:00.734Z,14.60
2018-12-18T20:23:29.184Z,14.27
2018-12-18T20:25:58.011Z,16.73
2018-12-18T20:28:26.088Z,15.93
2018-12-18T20:30:54.436Z,16.43
2018-12-18T20:33:22.595Z,15.53
2018-12-18T20:35:50.754Z,15.50
2018-12-18T20:38:18.914Z,15.87
2018-12-18T20:40:47.096Z,13.50
2018-12-18T20:43:15.330Z,16.03
2018-12-18T20:45:43.648Z,15.33
2018-12-18T20:48:11.729Z,15.93
2018-12-18T20:53:27.637Z,16.10
2018-12-18T20:55:55.987Z,15.47
2018-12-18T20:58:24.119Z,16.03
2018-12-18T21:00:52.263Z,16.47
2018-12-18T21:03:20.441Z,15.30
2018-12-18T21:05:49.817Z,16.03
2018-12-18T21:08:23.329Z,15.80
2018-12-18T21:10:48.294Z,15.87
2018-12-18T21:13:22.165Z,14.73
2018-12-18T21:15:50.623Z,17.93
2018-12-18T21:18:18.935Z,15.33
2018-12-18T21:20:47.328Z,17.20
2018-12-18T21:23:15.459Z,16.87
2018-12-18T21:25:43.681Z,16.73
2018-12-18T21:28:12.085Z,19.53
2018-12-18T21:30:40.436Z,17.50
2018-12-18T21:33:08.712Z,18.63
2018-12-18T21:35:37.203Z,18.33
2018-12-18T21:38:05.320Z,17.63
2018-12-18T21:40:33.495Z,18.73
2018-12-18T21:43:03.151Z,18.90
2018-12-18T21:45:31.488Z,18.77
2018-12-18T21:47:59.823Z,19.43
2018-12-18T21:50:28.154Z,19.43
2018-12-18T21:52:58.140Z,19.87
2018-12-18T21:55:26.490Z,18.53
2018-12-18T21:57:54.889Z,19.20
2018-12-18T22:00:23.171Z,20.20
2018-12-18T22:02:51.607Z,20.43
2018-12-18T22:05:20.152Z,18.27
2018-12-18T22:07:48.410Z,20.07
2018-12-18T22:10:16.603Z,18.47
2018-12-18T22:12:45.462Z,18.00
2018-12-18T22:15:13.676Z,21.17
2018-12-18T22:17:42.128Z,20.00
2018-12-18T22:20:10.330Z,19.50
2018-12-18T22:22:38.556Z,21.40
2018-12-18T22:25:06.700Z,24.90
2018-12-18T22:27:35.202Z,21.43
2018-12-18T22:30:04.541Z,19.77
2018-12-18T22:32:32.670Z,22.20
2018-12-18T22:35:00.976Z,21.53
2018-12-18T22:37:29.266Z,20.70
2018-12-18T22:39:57.478Z,24.90
2018-12-18T22:42:26.654Z,23.60
2018-12-18T22:44:55.188Z,23.80
2018-12-18T22:47:23.570Z,24.40
2018-12-18T22:49:51.742Z,25.20
2018-12-18T22:52:19.918Z,26.33
2018-12-18T22:54:48.004Z,27.67
2018-12-18T22:57:16.264Z,24.87
2018-12-18T22:59:44.456Z,25.17
2018-12-18T23:02:15.609Z,26.60
2018-12-18T23:04:45.186Z,23.30
2018-12-18T23:07:13.998Z,25.00
2018-12-18T23:09:42.201Z,29.70
2018-12-18T23:12:10.448Z,27.43
2018-12-18T23:14:38.681Z,24.67
2018-12-18T23:17:06.872Z,27.53
2018-12-18T23:19:35.044Z,23.70
2018-12-18T23:22:03.236Z,25.27
2018-12-18T23:24:31.428Z,26.73
2018-12-18T23:26:59.591Z,25.83
2018-12-18T23:29:27.752Z,28.37
2018-12-18T23:31:55.916Z,29.13
2018-12-18T23:34:24.259Z,25.67
2018-12-18T23:36:52.480Z,26.67
2018-12-18T23:39:20.666Z,25.03
2018-12-18T23:41:48.804Z,27.00
2018-12-18T23:44:17.044Z,28.77
2018-12-18T23:46:45.276Z,26.70
2018-12-18T23:49:13.638Z,27.70
2018-12-18T23:51:41.750Z,28.73
2018-12-18T23:54:09.960Z,29.27
2018-12-18T23:56:38.154Z,26.90
2018-12-18T23:59:06.436Z,30.97
